Shoreline, Washington
Current Conditions -  °F | °C
As of 3:53 AM on Thursday 27 Nov 2014 (Local Time) from KPAE Reporting Station
Light Rain Light Rain  
Wind Chill: 53°   Ceiling: 2200
Heat Index: 53°   Visibility: 10mi
Dew Point: 45°   Wind: 31mph
Humidity: 74%   Direction: 180°S
Pressure: 29.83"   Gusts: 44mph
Location:  47.7583°N, 122.295°W
Report Text: KPAE 271153Z AUTO 18027G38KT 10SM -RA OVC022 12/07 A2983 RMK AO2 PK WND 18038/1151 RAB27 SLP102 P0000 60000 70001 T01170072 10139 20117 56008
Loading
Personal Weather Stations






























Interactive Weather Map New forecast layout! Learn more

10-Day Weather Forecast

Advertisements
Track Severe Weather on mobile